Decoded Metar for UUBC ( in ) (IATA:) | Meteo·Mobile Aviation Weather
aviador You're here:

UUBC Decoded Metar

in
Report Time2018-12-16 09:30:00
UTC Time2018-12-16 10:02:05
Flight Rules ifr IFR
Wind060° at 4 kt
W.Rank060° ranks 27
Current wind is below 060° avg. (5.9)
Visibility7000 m
Phenomena:N/A
Clouds:Overcast 005 Hf
Expected CloudBase > 400 ft AGL from Temp-Dew spread
Ceiling500 ft
Temp-9°C
Dew Point-10°C (93% RH)
AAT-13.5°C
QNH1037 hPa
Raw Report
METAR UUBC 160930Z 06002MPS 020V090 7000 OVC005 M09/M10 Q1037
R31/190055 NOSIG RMK QBB170 QFE760/1014=

Extra information for UUBC:More info

Social comments